Home > Products > Valid Products > TAF

000
FTUS43 KJKL 282300
TAFLOZ
TAF
KLOZ 282340Z 2900/2924 00000KT P6SM SKC
     FM290800 00000KT 5SM BR SKC
     FM291000 00000KT 2SM BR SKC
     FM291300 VRB03KT P6SM SKC
     FM291800 VRB03KT P6SM VCTS SCT040CB=



000
FTUS43 KJKL 282300
TAFJKL
TAF
KJKL 282340Z 2900/2924 00000KT P6SM SKC
     FM290900 00000KT 5SM BR SKC
     FM291100 00000KT 2SM BR SKC
     FM291300 VRB03KT P6SM SKC
     FM292200 VRB03KT P6SM VCTS SCT050CB=



000
FTUS43 KJKL 282300
TAFSME
TAF
KSME 282340Z 2900/2924 00000KT P6SM SKC
     FM290500 00000KT 3SM BR SKC
     FM290900 00000KT 1SM BR SKC
     FM291300 VRB03KT P6SM SKC
     FM291800 VRB03KT P6SM VCTS SCT040CB=



000
FTUS43 KJKL 281700
TAFSME
TAF
KSME 281739Z 2818/2918 VRB04KT P6SM SCT035
     FM290800 VRB03KT 4SM BR SKC
     FM291300 VRB03KT P6SM SCT040=



000
FTUS43 KJKL 281700
TAFJKL
TAF
KJKL 281739Z 2818/2918 00000KT 5SM HZ BKN025
     FM281830 VRB03KT P6SM SCT035
     FM291000 VRB03KT 5SM BR SKC
     FM291300 VRB03KT P6SM SCT040=



000
FTUS43 KJKL 281700
TAFLOZ
TAF
KLOZ 281739Z 2818/2918 VRB04KT P6SM SCT035
     FM291000 VRB03KT 5SM BR SKC
     FM291300 VRB03KT P6SM SCT040=



000
FTUS43 KJKL 281400 AAC
TAFJKL
TAF AMD
KJKL 281453Z 2815/2912 00000KT 3SM BR OVC004
     FM281530 VRB03KT P6SM SCT030
     FM290700 VRB03KT 5SM BR FEW030=



000
FTUS43 KJKL 281400 AAB
TAFJKL
TAF AMD
KJKL 281405Z 2814/2912 00000KT 1SM BR OVC001
     FM281445 VRB03KT P6SM SCT030
     FM290700 VRB03KT 5SM BR FEW030=



000
FTUS43 KJKL 281400 AAB
TAFSME
TAF AMD
KSME 281404Z 2814/2912 00000KT 4SM BR BKN002
     FM281430 VRB03KT P6SM SCT035
     FM281700 VRB03KT P6SM VCTS SCT040CB
     FM290200 VRB03KT 5SM BR FEW030=



000
FTUS43 KJKL 281300 AAA
TAFSME
TAF AMD
KSME 281332Z 2814/2912 00000KT 1/2SM FG BKN002
     FM281400 VRB03KT 3SM BR BKN015
     FM281430 VRB03KT P6SM SCT035
     FM281700 VRB03KT P6SM VCTS SCT040CB
     FM290200 VRB03KT 5SM BR FEW030=



000
FTUS43 KJKL 281200 AAA
TAFJKL
TAF AMD
KJKL 281223Z 2812/2912 00000KT 3SM BR SCT002
      TEMPO 2812/2814 1/4SM FG OVC002
     FM281400 VRB03KT P6SM SCT030
     FM290700 VRB03KT 5SM BR FEW030=



000
FTUS43 KJKL 281100 CCA
TAFJKL
TAF COR
KJKL 281141Z 2812/2912 00000KT 6SM BR SCT015
     FM281400 VRB03KT P6SM SCT030
     FM290700 VRB03KT 5SM BR FEW030=



000
FTUS43 KJKL 281100
TAFLOZ
TAF
KLOZ 281139Z 2812/2912 00000KT 4SM BR SCT050 SCT100
     FM281300 VRB03KT P6SM SCT035
     FM281800 VRB05KT P6SM VCTS SCT040CB
     FM290200 VRB03KT 5SM BR FEW030=



000
FTUS43 KJKL 281100
TAFSME
TAF
KSME 281139Z 2812/2912 00000KT 1/2SM FG BKN002
     FM281330 VRB03KT 3SM BR BKN015
     FM281430 VRB03KT P6SM SCT035
     FM281700 VRB03KT P6SM VCTS SCT040CB
     FM290200 VRB03KT 5SM BR FEW030=



000
FTUS43 KJKL 281100
TAFJKL
TAF
KJKL 281139Z 2812/2912 00000KT 4SM BR BKN015
     FM281400 VRB03KT P6SM SCT030
     FM290700 VRB03KT 5SM BR FEW030=



000
FTUS43 KJKL 281000 AAA
TAFSME
TAF AMD
KSME 281003Z 2810/2906 00000KT 3SM BR SCT003
     FM281300 VRB03KT P6SM SCT035
     FM281900 VRB03KT P6SM VCTS SCT040CB
     FM290200 VRB03KT 5SM BR FEW040=



000
FTUS43 KJKL 281000 AAA
TAFLOZ
TAF AMD
KLOZ 281002Z 2810/2906 00000KT 5SM BR SCT050 SCT100
     FM281300 VRB03KT P6SM SCT035
     FM281900 VRB05KT P6SM VCTS SCT040CB
     FM290200 VRB03KT 5SM BR FEW040=



000
FTUS43 KJKL 281000 AAB
TAFJKL
TAF AMD
KJKL 281002Z 2810/2906 00000KT 1/2SM FG VV002
     FM281300 VRB03KT P6SM SCT030=



000
FTUS43 KJKL 280800 AAA
TAFJKL
TAF AMD
KJKL 280825Z 2808/2906 00000KT 2SM BR SCT002 SCT100
     FM281000 00000KT 1SM BR SCT003
     FM281300 VRB03KT P6SM SCT030=



000
FTUS43 KJKL 280500
TAFLOZ
TAF
KLOZ 280522Z 2806/2906 00000KT 5SM BR SCT050 SCT100
     FM281000 00000KT 2SM BR SCT003
     FM281300 VRB03KT P6SM SCT035
     FM281900 VRB05KT P6SM VCTS SCT040CB
     FM290200 VRB03KT 5SM BR FEW040=



000
FTUS43 KJKL 280500
TAFSME
TAF
KSME 280522Z 2806/2906 00000KT 5SM BR SCT050 SCT100
     FM280800 00000KT 3SM BR SCT003
     FM281000 00000KT 1SM BR SCT003 SCT030
     FM281300 VRB03KT P6SM SCT035
     FM281900 VRB03KT P6SM VCTS SCT040CB
     FM290200 VRB03KT 5SM BR FEW040=



000
FTUS43 KJKL 280500
TAFJKL
TAF
KJKL 280522Z 2806/2906 00000KT P6SM SCT050 SCT100
     FM280900 00000KT 3SM BR SCT003
     FM281300 VRB03KT P6SM SCT030=



000
FTUS43 KJKL 272300
TAFSME
TAF
KSME 272323Z 2800/2824 00000KT P6SM SKC
     FM280700 00000KT 3SM BR SKC
     FM281000 00000KT 1SM BR SCT003 SCT030
     FM281300 VRB03KT P6SM SKC
     FM281900 VRB03KT P6SM VCTS SCT040CB=



000
FTUS43 KJKL 272300
TAFJKL
TAF
KJKL 272323Z 2800/2824 VRB03KT P6SM SKC
     FM280400 00000KT P6SM VCSH SCT040
     FM280900 00000KT 3SM BR SCT003
     FM281300 VRB03KT P6SM SCT009
     FM281500 VRB03KT P6SM SCT030=



000
FTUS43 KJKL 272300
TAFLOZ
TAF
KLOZ 272323Z 2800/2824 00000KT P6SM SKC
     FM280900 00000KT 5SM BR SCT030
     FM281100 00000KT 2SM BR SCT003
     FM281300 VRB03KT P6SM SKC
     FM281900 VRB03KT P6SM VCTS SCT040CB=



000
FTUS43 KJKL 271700
TAFJKL
TAF
KJKL 271737Z 2718/2818 VRB03KT P6SM SCT035 SCT250=



000
FTUS43 KJKL 271700
TAFSME
TAF
KSME 271737Z 2718/2818 VRB03KT P6SM FEW040
     FM281000 00000KT 4SM BR FEW250
     FM281300 VRB03KT P6SM FEW250=



000
FTUS43 KJKL 271700
TAFLOZ
TAF
KLOZ 271737Z 2718/2818 VRB03KT P6SM FEW040
     FM281000 00000KT 4SM BR FEW250
     FM281300 VRB03KT P6SM FEW250=



000
FTUS43 KJKL 271100
TAFJKL
TAF
KJKL 271139Z 2712/2812 VRB03KT P6SM FEW250=



000
FTUS43 KJKL 271100
TAFSME
TAF
KSME 271139Z 2712/2812 VRB03KT P6SM FEW250=



000
FTUS43 KJKL 271100
TAFLOZ
TAF
KLOZ 271139Z 2712/2812 VRB03KT P6SM FEW250=



000
FTUS43 KJKL 270500
TAFLOZ
TAF
KLOZ 270531Z 2706/2806 VRB03KT P6SM FEW250=



000
FTUS43 KJKL 270500
TAFJKL
TAF
KJKL 270531Z 2706/2806 VRB03KT P6SM FEW250=



000
FTUS43 KJKL 270500
TAFSME
TAF
KSME 270531Z 2706/2806 VRB03KT P6SM FEW250
     FM270900 00000KT 4SM BR FEW250
     FM271300 00000KT P6SM FEW250=



000
FTUS43 KJKL 262300
TAFJKL
TAF
KJKL 262330Z 2700/2724 VRB03KT P6SM FEW250=



000
FTUS43 KJKL 262300
TAFLOZ
TAF
KLOZ 262330Z 2700/2724 VRB03KT P6SM FEW250=



000
FTUS43 KJKL 262300
TAFSME
TAF
KSME 262330Z 2700/2724 VRB03KT P6SM FEW250=



000
FTUS43 KJKL 261700
TAFSME
TAF
KSME 261722Z 2618/2718 VRB03KT P6SM SCT050=



000
FTUS43 KJKL 261700
TAFJKL
TAF
KJKL 261722Z 2618/2718 VRB03KT P6SM SCT050=



000
FTUS43 KJKL 261700
TAFLOZ
TAF
KLOZ 261722Z 2618/2718 VRB03KT P6SM SCT050=



000
FTUS43 KJKL 261100
TAFSME
TAF
KSME 261124Z 2612/2712 10004KT P6SM BKN025 OVC035
     FM261400 20003KT P6SM SCT030
     FM270900 00000KT 4SM BR SKC=



000
FTUS43 KJKL 261100
TAFJKL
TAF
KJKL 261124Z 2612/2712 VRB03KT P6SM FEW045 FEW120=



000
FTUS43 KJKL 261100
TAFLOZ
TAF
KLOZ 261124Z 2612/2712 06004KT P6SM FEW045 FEW120
     FM270900 00000KT 4SM BR SKC=



000
FTUS43 KJKL 260500
TAFLOZ
TAF
KLOZ 260526Z 2606/2706 06004KT P6SM FEW045 FEW120=



000
FTUS43 KJKL 260500
TAFSME
TAF
KSME 260526Z 2606/2706 10004KT P6SM FEW045 FEW120=



000
FTUS43 KJKL 260500
TAFJKL
TAF
KJKL 260526Z 2606/2706 VRB03KT P6SM FEW045 FEW120=



    US Dept of Commerce
    National Oceanic and Atmospheric Administration
    National Weather Service
    1325 East West Highway
    Silver Spring, MD 20910
    Page Author: NWS Internet Services Team
Disclaimer
Information Quality
Credits
Glossary
Privacy Policy
Freedom of Information Act (FOIA)
About Us
Career Opportunities